createdAt,value
2023-02-19T00:01:08.320Z,98155.81
2023-02-19T00:03:47.767Z,98158.48
2023-02-19T00:06:14.643Z,98165.40
2023-02-19T00:08:41.663Z,98158.65
2023-02-19T00:11:11.379Z,98165.27
2023-02-19T00:13:39.785Z,98167.98
2023-02-19T00:16:16.674Z,98172.17
2023-02-19T00:18:43.819Z,98177.80
2023-02-19T00:21:11.543Z,98169.00
2023-02-19T00:23:38.850Z,98163.66
2023-02-19T00:26:17.527Z,98172.45
2023-02-19T00:28:46.050Z,98176.88
2023-02-19T00:31:15.994Z,98174.75
2023-02-19T00:33:43.143Z,98179.34
2023-02-19T00:36:10.092Z,98188.30
2023-02-19T00:38:37.950Z,98187.27
2023-02-19T00:41:18.611Z,98184.90
2023-02-19T00:43:50.582Z,98187.64
2023-02-19T00:46:18.715Z,98191.87
2023-02-19T00:48:46.271Z,98197.74
2023-02-19T00:51:13.637Z,98199.98
2023-02-19T00:53:41.045Z,98203.05
2023-02-19T00:56:08.610Z,98203.95
2023-02-19T00:58:35.651Z,98205.27
2023-02-19T01:01:02.756Z,98205.20
2023-02-19T01:03:29.665Z,98198.05
2023-02-19T01:05:56.814Z,98201.35
2023-02-19T01:08:24.284Z,98202.84
2023-02-19T01:10:51.655Z,98204.81
2023-02-19T01:13:18.742Z,98208.14
2023-02-19T01:15:46.067Z,98206.91
2023-02-19T01:18:13.118Z,98212.42
2023-02-19T01:20:41.897Z,98213.14
2023-02-19T01:23:10.599Z,98210.83
2023-02-19T01:25:39.011Z,98212.23
2023-02-19T01:28:06.092Z,98213.28
2023-02-19T01:30:36.630Z,98220.42
2023-02-19T01:33:04.521Z,98216.06
2023-02-19T01:35:31.425Z,98211.29
2023-02-19T01:37:58.588Z,98217.84
2023-02-19T01:40:25.823Z,98228.17
2023-02-19T01:42:53.044Z,98230.80
2023-02-19T01:45:22.766Z,98223.85
2023-02-19T01:48:03.422Z,98221.41
2023-02-19T01:50:34.584Z,98221.74
2023-02-19T01:53:04.898Z,98221.66
2023-02-19T01:55:32.987Z,98223.23
2023-02-19T01:58:01.662Z,98222.31
2023-02-19T02:00:28.969Z,98218.64
2023-02-19T02:02:57.614Z,98226.35
2023-02-19T02:05:32.298Z,98230.15
2023-02-19T02:08:20.485Z,98232.67
2023-02-19T02:10:48.546Z,98235.66
2023-02-19T02:13:15.583Z,98236.08
2023-02-19T02:15:47.057Z,98238.00
2023-02-19T02:18:32.731Z,98242.81
2023-02-19T02:21:07.193Z,98252.65
2023-02-19T02:23:47.304Z,98254.64
2023-02-19T02:26:30.812Z,98247.48
2023-02-19T02:29:25.208Z,98249.90
2023-02-19T02:32:02.805Z,98241.98
2023-02-19T02:34:37.633Z,98248.71
2023-02-19T02:37:05.060Z,98250.05
2023-02-19T02:39:32.346Z,98254.88
2023-02-19T02:42:18.184Z,98252.97
2023-02-19T02:45:22.514Z,98249.68
2023-02-19T02:47:52.536Z,98253.86
2023-02-19T02:50:23.137Z,98254.36
2023-02-19T02:53:10.502Z,98254.02
2023-02-19T02:55:40.400Z,98258.58
2023-02-19T02:58:08.224Z,98260.92
2023-02-19T03:00:56.446Z,98265.02
2023-02-19T03:03:25.253Z,98267.09
2023-02-19T03:05:54.629Z,98270.27
2023-02-19T03:08:25.072Z,98278.00
2023-02-19T03:11:29.943Z,98281.41
2023-02-19T03:14:39.527Z,98286.72
2023-02-19T03:17:41.650Z,98285.20
2023-02-19T03:20:11.871Z,98279.69
2023-02-19T03:22:40.052Z,98274.46
2023-02-19T03:25:28.039Z,98270.18
2023-02-19T03:27:57.193Z,98264.92
2023-02-19T03:30:28.168Z,98277.59
2023-02-19T03:32:59.881Z,98287.22
2023-02-19T03:35:29.901Z,98295.46
2023-02-19T03:38:01.810Z,98301.23
2023-02-19T03:40:30.378Z,98304.97
2023-02-19T03:43:03.761Z,98301.63
2023-02-19T03:45:41.898Z,98297.24
2023-02-19T03:48:09.112Z,98299.73
2023-02-19T03:50:41.761Z,98301.34
2023-02-19T03:53:18.056Z,98298.17
2023-02-19T03:55:51.611Z,98300.17
2023-02-19T03:58:24.136Z,98295.52
2023-02-19T04:01:10.125Z,98303.08
2023-02-19T04:03:37.288Z,98304.16
2023-02-19T04:06:09.353Z,98311.60
2023-02-19T04:08:38.397Z,98317.86
2023-02-19T04:11:05.868Z,98318.30
2023-02-19T04:13:45.546Z,98315.31
2023-02-19T04:16:21.530Z,98319.44
2023-02-19T04:18:51.116Z,98319.51
2023-02-19T04:21:19.499Z,98322.79
2023-02-19T04:23:47.046Z,98323.26
2023-02-19T04:26:14.858Z,98326.82
2023-02-19T04:28:43.605Z,98329.81
2023-02-19T04:31:11.366Z,98334.86
2023-02-19T04:33:38.554Z,98338.16
2023-02-19T04:36:07.033Z,98340.90
2023-02-19T04:38:33.956Z,98344.42
2023-02-19T04:41:00.829Z,98340.75
2023-02-19T04:43:27.646Z,98333.27
2023-02-19T04:45:55.423Z,98327.95
2023-02-19T04:48:22.400Z,98325.67
2023-02-19T04:50:49.652Z,98318.95
2023-02-19T04:53:16.810Z,98324.90
2023-02-19T04:55:43.968Z,98324.80
2023-02-19T04:58:11.014Z,98320.91
2023-02-19T05:00:38.072Z,98324.26
2023-02-19T05:03:05.221Z,98323.30
2023-02-19T05:05:32.275Z,98321.14
2023-02-19T05:07:59.432Z,98319.67
2023-02-19T05:10:26.302Z,98323.05
2023-02-19T05:12:56.798Z,98329.16
2023-02-19T05:15:24.784Z,98326.23
2023-02-19T05:17:51.838Z,98327.66
2023-02-19T05:20:18.892Z,98323.02
2023-02-19T05:22:45.946Z,98318.70
2023-02-19T05:25:12.894Z,98314.59
2023-02-19T05:27:39.852Z,98305.67
2023-02-19T05:30:07.168Z,98304.88
2023-02-19T05:32:34.798Z,98315.52
2023-02-19T05:35:01.928Z,98315.05
2023-02-19T05:37:29.208Z,98314.52
2023-02-19T05:39:56.136Z,98306.48
2023-02-19T05:42:23.185Z,98298.17
2023-02-19T05:44:50.134Z,98291.42
2023-02-19T05:47:17.291Z,98294.84
2023-02-19T05:49:44.241Z,98302.08
2023-02-19T05:52:11.398Z,98306.54
2023-02-19T05:54:38.453Z,98313.55
2023-02-19T05:57:05.401Z,98315.83
2023-02-19T05:59:32.348Z,98315.48
2023-02-19T06:01:59.402Z,98317.85
2023-02-19T06:04:26.660Z,98321.72
2023-02-19T06:06:53.594Z,98323.91
2023-02-19T06:09:20.414Z,98326.23
2023-02-19T06:11:47.357Z,98320.83
2023-02-19T06:14:14.564Z,98314.43
2023-02-19T06:16:42.441Z,98309.77
2023-02-19T06:19:09.902Z,98306.82
2023-02-19T06:21:37.011Z,98308.02
2023-02-19T06:24:04.580Z,98316.34
2023-02-19T06:26:31.466Z,98321.91
2023-02-19T06:28:58.621Z,98320.45
2023-02-19T06:31:25.621Z,98321.38
2023-02-19T06:33:52.715Z,98318.31
2023-02-19T06:36:20.500Z,98319.79
2023-02-19T06:38:47.765Z,98315.02
2023-02-19T06:41:15.079Z,98313.15
2023-02-19T06:43:42.396Z,98312.85
2023-02-19T06:46:10.707Z,98314.11
2023-02-19T06:48:38.634Z,98309.19
2023-02-19T06:51:05.534Z,98304.34
2023-02-19T06:53:32.655Z,98296.36
2023-02-19T06:56:01.554Z,98295.15
2023-02-19T06:58:28.686Z,98297.54
2023-02-19T07:00:55.801Z,98294.58
2023-02-19T07:03:22.929Z,98291.95
2023-02-19T07:05:49.913Z,98284.13
2023-02-19T07:08:17.112Z,98283.45
2023-02-19T07:10:44.986Z,98282.20
2023-02-19T07:13:12.203Z,98280.74
2023-02-19T07:15:39.124Z,98277.10
2023-02-19T07:18:09.775Z,98273.59
2023-02-19T07:20:37.091Z,98279.91
2023-02-19T07:23:04.326Z,98286.30
2023-02-19T07:25:31.480Z,98285.56
2023-02-19T07:27:58.532Z,98278.17
2023-02-19T07:30:25.732Z,98270.30
2023-02-19T07:32:52.943Z,98262.93
2023-02-19T07:35:20.004Z,98260.41
2023-02-19T07:37:47.013Z,98268.48
2023-02-19T07:40:13.936Z,98270.98
2023-02-19T07:42:40.888Z,98265.89
2023-02-19T07:45:08.012Z,98260.92
2023-02-19T07:47:35.021Z,98260.26
2023-02-19T07:50:01.857Z,98268.11
2023-02-19T07:52:29.066Z,98269.05
2023-02-19T07:54:56.183Z,98267.56
2023-02-19T07:57:23.067Z,98258.61
2023-02-19T07:59:50.122Z,98253.08
2023-02-19T08:02:37.236Z,98255.02
2023-02-19T08:05:05.315Z,98251.52
2023-02-19T08:07:36.050Z,98253.41
2023-02-19T08:10:22.243Z,98258.98
2023-02-19T08:13:15.483Z,98264.28
2023-02-19T08:15:42.946Z,98259.61
2023-02-19T08:18:10.510Z,98254.71
2023-02-19T08:20:37.644Z,98257.66
2023-02-19T08:23:04.640Z,98258.52
2023-02-19T08:25:32.178Z,98258.50
2023-02-19T08:28:02.461Z,98256.83
2023-02-19T08:30:30.224Z,98243.91
2023-02-19T08:32:59.708Z,98242.28
2023-02-19T08:35:27.759Z,98240.16
2023-02-19T08:37:56.145Z,98240.42
2023-02-19T08:40:23.672Z,98242.60
2023-02-19T08:42:50.614Z,98241.84
2023-02-19T08:45:17.651Z,98243.33
2023-02-19T08:47:45.060Z,98238.90
2023-02-19T08:50:11.916Z,98234.22
2023-02-19T08:52:38.967Z,98237.51
2023-02-19T08:55:06.082Z,98235.95
2023-02-19T08:57:35.059Z,98236.94
2023-02-19T09:00:01.876Z,98241.29
2023-02-19T09:02:29.739Z,98241.97
2023-02-19T09:04:56.891Z,98232.89
2023-02-19T09:07:24.654Z,98225.73
2023-02-19T09:09:51.543Z,98231.44
2023-02-19T09:12:19.174Z,98239.85
2023-02-19T09:14:46.208Z,98245.45
2023-02-19T09:17:13.177Z,98246.87
2023-02-19T09:19:40.237Z,98244.52
2023-02-19T09:22:07.302Z,98242.09
2023-02-19T09:24:34.351Z,98237.67
2023-02-19T09:27:01.494Z,98242.14
2023-02-19T09:29:28.860Z,98234.52
2023-02-19T09:31:57.567Z,98229.67
2023-02-19T09:34:25.387Z,98225.54
2023-02-19T09:36:52.420Z,98227.34
2023-02-19T09:39:19.755Z,98234.50
2023-02-19T09:41:52.510Z,98234.58
2023-02-19T09:44:24.078Z,98238.25
2023-02-19T09:46:52.296Z,98229.99
2023-02-19T09:49:25.753Z,98230.84
2023-02-19T09:51:58.330Z,98226.67
2023-02-19T09:54:30.370Z,98229.52
2023-02-19T09:57:00.007Z,98232.44
2023-02-19T09:59:33.576Z,98237.98
2023-02-19T10:02:20.648Z,98236.91
2023-02-19T10:04:50.576Z,98235.52
2023-02-19T10:07:43.777Z,98230.70
2023-02-19T10:10:13.942Z,98229.93
2023-02-19T10:12:45.453Z,98231.33
2023-02-19T10:15:16.925Z,98231.74
2023-02-19T10:17:44.163Z,98236.05
2023-02-19T10:20:19.528Z,98237.52
2023-02-19T10:22:46.456Z,98229.11
2023-02-19T10:25:16.425Z,98221.85
2023-02-19T10:27:43.713Z,98230.02
2023-02-19T10:30:17.769Z,98226.50
2023-02-19T10:33:08.158Z,98223.88
2023-02-19T10:35:36.636Z,98222.02
2023-02-19T10:38:06.334Z,98217.54
2023-02-19T10:40:33.486Z,98215.77
2023-02-19T10:43:01.872Z,98223.02
2023-02-19T10:45:39.339Z,98218.98
2023-02-19T10:48:09.817Z,98217.11
2023-02-19T10:50:46.654Z,98216.72
2023-02-19T10:53:23.043Z,98214.38
2023-02-19T10:56:05.744Z,98213.08
2023-02-19T10:58:37.364Z,98206.18
2023-02-19T11:01:12.408Z,98206.61
2023-02-19T11:03:39.899Z,98205.98
2023-02-19T11:06:09.001Z,98205.81
2023-02-19T11:08:55.776Z,98208.92
2023-02-19T11:11:31.178Z,98206.45
2023-02-19T11:13:59.425Z,98200.34
2023-02-19T11:16:38.084Z,98194.32
2023-02-19T11:19:05.397Z,98190.99
2023-02-19T11:21:33.087Z,98180.66
2023-02-19T11:24:04.602Z,98183.73
2023-02-19T11:26:34.771Z,98189.34
2023-02-19T11:29:11.519Z,98194.33
2023-02-19T11:31:38.899Z,98191.73
2023-02-19T11:34:06.031Z,98192.41
2023-02-19T11:36:37.180Z,98185.68
2023-02-19T11:39:16.173Z,98179.14
2023-02-19T11:41:55.949Z,98174.66
2023-02-19T11:44:33.696Z,98173.58
2023-02-19T11:47:15.644Z,98174.92
2023-02-19T11:49:51.700Z,98172.59
2023-02-19T11:52:43.776Z,98157.20
2023-02-19T11:55:10.778Z,98154.08
2023-02-19T11:57:41.002Z,98151.71
2023-02-19T12:00:18.536Z,98138.40
2023-02-19T12:03:04.226Z,98138.35
2023-02-19T12:05:39.620Z,98134.52
2023-02-19T12:08:19.914Z,98133.07
2023-02-19T12:11:03.184Z,98123.90
2023-02-19T12:13:42.240Z,98119.20
2023-02-19T12:16:09.340Z,98116.72
2023-02-19T12:18:36.521Z,98111.44
2023-02-19T12:21:18.721Z,98102.77
2023-02-19T12:23:54.855Z,98102.79
2023-02-19T12:26:25.512Z,98099.33
2023-02-19T12:28:52.381Z,98096.30
2023-02-19T12:31:34.402Z,98096.89
2023-02-19T12:34:33.753Z,98095.80
2023-02-19T12:37:19.015Z,98093.81
2023-02-19T12:40:21.180Z,98093.35
2023-02-19T12:42:53.855Z,98083.81
2023-02-19T12:45:24.071Z,98079.15
2023-02-19T12:47:59.515Z,98078.70
2023-02-19T12:50:28.412Z,98078.95
2023-02-19T12:53:01.298Z,98074.16
2023-02-19T12:55:34.933Z,98062.35
2023-02-19T12:58:04.459Z,98064.73
2023-02-19T13:00:40.983Z,98066.63
2023-02-19T13:03:20.301Z,98060.09
2023-02-19T13:06:07.091Z,98057.51
2023-02-19T13:08:48.785Z,98059.10
2023-02-19T13:11:27.566Z,98055.95
2023-02-19T13:13:58.323Z,98057.63
2023-02-19T13:16:25.700Z,98050.27
2023-02-19T13:18:57.791Z,98047.77
2023-02-19T13:21:45.520Z,98042.77
2023-02-19T13:24:33.346Z,98043.14
2023-02-19T13:27:27.807Z,98043.98
2023-02-19T13:30:03.823Z,98036.37
2023-02-19T13:32:49.413Z,98032.98
2023-02-19T13:35:28.685Z,98024.27
2023-02-19T13:37:59.899Z,98023.15
2023-02-19T13:40:34.495Z,98017.61
2023-02-19T13:43:27.782Z,98010.96
2023-02-19T13:45:56.888Z,98009.35
2023-02-19T13:48:23.776Z,98002.31
2023-02-19T13:51:10.909Z,97998.82
2023-02-19T13:53:44.368Z,97992.17
2023-02-19T13:56:34.757Z,97992.71
2023-02-19T13:59:10.759Z,97991.50
2023-02-19T14:01:52.433Z,97987.98
2023-02-19T14:04:25.383Z,97984.09
2023-02-19T14:07:04.638Z,97974.70
2023-02-19T14:09:40.348Z,97975.34
2023-02-19T14:12:07.184Z,97976.27
2023-02-19T14:14:35.832Z,97973.23
2023-02-19T14:17:08.597Z,97973.13
2023-02-19T14:19:41.581Z,97971.23
2023-02-19T14:22:30.216Z,97970.23
2023-02-19T14:24:57.438Z,97977.52
2023-02-19T14:27:24.910Z,97973.42
2023-02-19T14:29:52.204Z,97973.06
2023-02-19T14:32:20.001Z,97968.95
2023-02-19T14:34:47.121Z,97962.95
2023-02-19T14:37:19.284Z,97964.75
2023-02-19T14:39:46.848Z,97957.70
2023-02-19T14:42:17.122Z,97957.78
2023-02-19T14:44:50.261Z,97955.56
2023-02-19T14:47:19.578Z,97957.49
2023-02-19T14:49:46.585Z,97953.30
2023-02-19T14:52:19.519Z,97949.34
2023-02-19T14:55:09.381Z,97946.55
2023-02-19T14:57:39.102Z,97936.41
2023-02-19T15:00:22.549Z,97934.14
2023-02-19T15:02:50.301Z,97928.92
2023-02-19T15:05:18.744Z,97923.27
2023-02-19T15:07:45.828Z,97920.85
2023-02-19T15:10:14.007Z,97914.27
2023-02-19T15:12:46.299Z,97899.61
2023-02-19T15:15:24.056Z,97892.14
2023-02-19T15:17:52.259Z,97870.80
2023-02-19T15:20:22.475Z,97872.13
2023-02-19T15:22:49.666Z,97859.20
2023-02-19T15:25:18.632Z,97870.62
2023-02-19T15:27:45.684Z,97869.22
2023-02-19T15:30:18.600Z,97871.18
2023-02-19T15:33:11.772Z,97876.38
2023-02-19T15:35:38.673Z,97886.80
2023-02-19T15:38:10.947Z,97884.44
2023-02-19T15:40:37.882Z,97891.80
2023-02-19T15:43:04.859Z,97902.08
2023-02-19T15:45:38.349Z,97895.80
2023-02-19T15:48:07.692Z,97894.92
2023-02-19T15:50:36.360Z,97885.97
2023-02-19T15:53:13.643Z,97886.45
2023-02-19T15:55:43.031Z,97880.88
2023-02-19T15:58:19.093Z,97880.22
2023-02-19T16:00:55.129Z,97865.77
2023-02-19T16:03:23.509Z,97863.04
2023-02-19T16:06:10.922Z,97867.44
2023-02-19T16:08:39.505Z,97862.36
2023-02-19T16:11:27.263Z,97856.55
2023-02-19T16:14:12.708Z,97849.83
2023-02-19T16:16:41.627Z,97857.30
2023-02-19T16:19:09.398Z,97850.29
2023-02-19T16:21:36.465Z,97865.69
2023-02-19T16:24:05.652Z,97893.63
2023-02-19T16:26:42.222Z,97912.42
2023-02-19T16:29:20.061Z,97916.84
2023-02-19T16:32:01.381Z,97922.64
2023-02-19T16:34:40.128Z,97914.23
2023-02-19T16:37:25.787Z,97906.58
2023-02-19T16:40:05.129Z,97916.57
2023-02-19T16:42:32.705Z,97929.79
2023-02-19T16:44:59.857Z,97943.50
2023-02-19T16:47:37.356Z,97955.92
2023-02-19T16:50:11.553Z,97963.45
2023-02-19T16:52:49.636Z,97970.29
2023-02-19T16:55:16.508Z,97970.52
2023-02-19T16:57:43.419Z,97973.21
2023-02-19T17:00:19.782Z,97975.63
2023-02-19T17:02:51.037Z,97984.09
2023-02-19T17:05:18.635Z,97987.90
2023-02-19T17:07:45.955Z,97997.44
2023-02-19T17:10:15.358Z,98014.00
2023-02-19T17:12:42.660Z,98025.27
2023-02-19T17:15:09.712Z,98034.98
2023-02-19T17:17:36.765Z,98044.33
2023-02-19T17:20:17.558Z,98049.19
2023-02-19T17:22:44.584Z,98054.11
2023-02-19T17:25:11.943Z,98058.04
2023-02-19T17:27:39.352Z,98063.56
2023-02-19T17:30:10.962Z,98064.27
2023-02-19T17:32:38.095Z,98066.91
2023-02-19T17:35:05.583Z,98076.34
2023-02-19T17:37:32.702Z,98084.33
2023-02-19T17:39:59.888Z,98097.44
2023-02-19T17:42:26.791Z,98094.77
2023-02-19T17:44:53.895Z,98103.52
2023-02-19T17:47:21.051Z,98113.23
2023-02-19T17:49:47.968Z,98110.47
2023-02-19T17:52:17.194Z,98117.13
2023-02-19T17:54:44.420Z,98110.85
2023-02-19T17:57:11.407Z,98108.46
2023-02-19T17:59:38.358Z,98116.89
2023-02-19T18:02:05.818Z,98120.67
2023-02-19T18:04:35.449Z,98121.02
2023-02-19T18:07:03.280Z,98122.47
2023-02-19T18:09:30.251Z,98118.67
2023-02-19T18:11:57.309Z,98124.91
2023-02-19T18:14:24.357Z,98131.73
2023-02-19T18:16:51.611Z,98134.15
2023-02-19T18:19:19.091Z,98138.39
2023-02-19T18:21:46.138Z,98145.55
2023-02-19T18:24:13.315Z,98143.11
2023-02-19T18:26:40.645Z,98139.63
2023-02-19T18:29:07.801Z,98139.86
2023-02-19T18:31:36.949Z,98134.49
2023-02-19T18:34:04.567Z,98127.86
2023-02-19T18:36:31.928Z,98134.25
2023-02-19T18:38:58.967Z,98135.51
2023-02-19T18:41:25.838Z,98145.02
2023-02-19T18:43:52.813Z,98141.83
2023-02-19T18:46:20.383Z,98139.80
2023-02-19T18:48:47.500Z,98143.45
2023-02-19T18:51:14.601Z,98154.61
2023-02-19T18:53:42.424Z,98164.98
2023-02-19T18:56:09.392Z,98168.83
2023-02-19T18:58:36.428Z,98179.23
2023-02-19T19:01:03.514Z,98188.19
2023-02-19T19:03:31.340Z,98187.69
2023-02-19T19:05:58.237Z,98183.77
2023-02-19T19:08:25.255Z,98187.17
2023-02-19T19:10:52.204Z,98185.85
2023-02-19T19:13:19.096Z,98184.01
2023-02-19T19:15:50.465Z,98195.23
2023-02-19T19:18:17.926Z,98200.34
2023-02-19T19:20:45.024Z,98201.83
2023-02-19T19:23:12.377Z,98218.11
2023-02-19T19:25:39.236Z,98228.37
2023-02-19T19:28:06.284Z,98238.70
2023-02-19T19:30:33.372Z,98233.80
2023-02-19T19:33:01.929Z,98233.01
2023-02-19T19:35:28.977Z,98243.59
2023-02-19T19:37:56.033Z,98242.79
2023-02-19T19:40:23.081Z,98256.72
2023-02-19T19:42:50.598Z,98264.77
2023-02-19T19:45:17.785Z,98267.27
2023-02-19T19:47:44.852Z,98268.41
2023-02-19T19:50:13.954Z,98263.04
2023-02-19T19:52:41.212Z,98243.59
2023-02-19T19:55:08.253Z,98245.11
2023-02-19T19:57:35.329Z,98252.54
2023-02-19T20:00:02.575Z,98258.85
2023-02-19T20:02:39.176Z,98270.83
2023-02-19T20:05:06.427Z,98280.15
2023-02-19T20:07:33.556Z,98281.38
2023-02-19T20:10:00.505Z,98278.02
2023-02-19T20:12:27.455Z,98281.59
2023-02-19T20:14:54.380Z,98271.89
2023-02-19T20:17:21.488Z,98275.89
2023-02-19T20:19:48.522Z,98279.19
2023-02-19T20:22:15.578Z,98280.47
2023-02-19T20:24:42.575Z,98287.41
2023-02-19T20:27:09.580Z,98300.43
2023-02-19T20:29:36.523Z,98310.94
2023-02-19T20:32:03.739Z,98322.58
2023-02-19T20:34:30.963Z,98330.27
2023-02-19T20:36:58.288Z,98334.98
2023-02-19T20:39:28.400Z,98351.27
2023-02-19T20:41:56.080Z,98359.35
2023-02-19T20:44:23.344Z,98361.92
2023-02-19T20:46:51.268Z,98364.19
2023-02-19T20:49:19.896Z,98362.30
2023-02-19T20:51:49.510Z,98363.96
2023-02-19T20:54:16.771Z,98364.67
2023-02-19T20:56:47.624Z,98367.51
2023-02-19T20:59:14.972Z,98364.77
2023-02-19T21:01:42.327Z,98368.56
2023-02-19T21:04:09.714Z,98370.08
2023-02-19T21:06:36.946Z,98376.18
2023-02-19T21:09:04.230Z,98381.64
2023-02-19T21:11:31.763Z,98383.46
2023-02-19T21:13:59.123Z,98388.99
2023-02-19T21:16:27.083Z,98383.95
2023-02-19T21:18:54.357Z,98382.02
2023-02-19T21:21:24.721Z,98386.97
2023-02-19T21:23:52.464Z,98394.99
2023-02-19T21:26:19.846Z,98396.73
2023-02-19T21:28:46.863Z,98397.77
2023-02-19T21:31:13.997Z,98397.86
2023-02-19T21:33:41.177Z,98398.23
2023-02-19T21:36:08.675Z,98398.79
2023-02-19T21:38:35.694Z,98402.09
2023-02-19T21:41:02.848Z,98403.02
2023-02-19T21:43:30.003Z,98400.67
2023-02-19T21:45:57.000Z,98399.92
2023-02-19T21:48:24.004Z,98403.02
2023-02-19T21:50:51.070Z,98410.71
2023-02-19T21:53:18.013Z,98413.83
2023-02-19T21:55:57.952Z,98421.73
2023-02-19T21:58:26.256Z,98423.96
2023-02-19T22:00:53.884Z,98431.95
2023-02-19T22:03:20.954Z,98429.36
2023-02-19T22:05:48.005Z,98424.55
2023-02-19T22:08:16.920Z,98431.34
2023-02-19T22:10:43.849Z,98437.31
2023-02-19T22:13:10.902Z,98437.13
2023-02-19T22:15:37.850Z,98439.61
2023-02-19T22:18:05.108Z,98441.59
2023-02-19T22:20:32.160Z,98446.63
2023-02-19T22:22:59.315Z,98453.17
2023-02-19T22:25:26.369Z,98458.38
2023-02-19T22:27:53.523Z,98461.02
2023-02-19T22:30:20.723Z,98467.35
2023-02-19T22:32:47.732Z,98465.61
2023-02-19T22:35:15.813Z,98474.45
2023-02-19T22:37:42.974Z,98482.14
2023-02-19T22:40:10.226Z,98491.83
2023-02-19T22:42:37.786Z,98497.70
2023-02-19T22:45:05.453Z,98499.24
2023-02-19T22:47:32.505Z,98498.38
2023-02-19T22:49:59.559Z,98497.64
2023-02-19T22:52:27.638Z,98501.91
2023-02-19T22:54:55.505Z,98517.91
2023-02-19T22:57:22.677Z,98528.27
2023-02-19T22:59:49.818Z,98534.82
2023-02-19T23:02:17.077Z,98533.98
2023-02-19T23:04:44.128Z,98532.48
2023-02-19T23:07:11.284Z,98539.88
2023-02-19T23:09:38.337Z,98549.27
2023-02-19T23:12:07.510Z,98557.23
2023-02-19T23:14:35.105Z,98563.83
2023-02-19T23:17:02.264Z,98572.98
2023-02-19T23:19:29.831Z,98582.55
2023-02-19T23:21:56.989Z,98584.25
2023-02-19T23:24:24.548Z,98596.59
2023-02-19T23:26:53.142Z,98607.13
2023-02-19T23:29:21.730Z,98607.91
2023-02-19T23:31:48.913Z,98610.96
2023-02-19T23:34:16.355Z,98613.52
2023-02-19T23:36:44.310Z,98614.05
2023-02-19T23:39:12.926Z,98627.05
2023-02-19T23:41:45.475Z,98624.51
2023-02-19T23:44:12.526Z,98634.31
2023-02-19T23:46:39.579Z,98635.88
2023-02-19T23:49:06.633Z,98633.67
2023-02-19T23:51:33.896Z,98645.59
2023-02-19T23:54:01.146Z,98642.38
2023-02-19T23:56:29.015Z,98646.69
2023-02-19T23:58:56.275Z,98647.93
